createdAt,value
2019-05-16T00:01:41.716Z,97008.68
2019-05-16T00:04:13.412Z,97000.33
2019-05-16T00:06:44.384Z,96996.74
2019-05-16T00:09:18.280Z,96986.72
2019-05-16T00:11:51.569Z,96990.13
2019-05-16T00:14:22.533Z,96975.58
2019-05-16T00:16:54.535Z,96981.70
2019-05-16T00:19:25.211Z,96980.05
2019-05-16T00:21:58.109Z,96977.89
2019-05-16T00:24:29.464Z,96968.09
2019-05-16T00:27:00.478Z,96964.77
2019-05-16T00:29:38.167Z,96951.77
2019-05-16T00:32:08.804Z,96955.50
2019-05-16T00:34:39.402Z,96952.05
2019-05-16T01:03:02.750Z,96917.27
2019-05-16T01:05:34.431Z,96907.28
2019-05-16T01:08:05.367Z,96902.92
2019-05-16T01:10:39.106Z,96905.49
2019-05-16T01:13:10.441Z,96907.26
2019-05-16T01:15:41.476Z,96904.58
2019-05-16T01:18:12.824Z,96902.00
2019-05-16T01:20:44.429Z,96900.56
2019-05-16T01:23:15.052Z,96892.73
2019-05-16T01:25:48.468Z,96890.34
2019-05-16T01:28:19.546Z,96888.84
2019-05-16T01:30:50.587Z,96886.64
2019-05-16T01:33:22.468Z,96887.09
2019-05-16T01:35:54.055Z,96885.82
2019-05-16T01:38:25.450Z,96887.10
2019-05-16T01:40:58.279Z,96881.02
2019-05-16T01:43:29.296Z,96886.05
2019-05-16T01:46:00.667Z,96886.08
2019-05-16T01:48:31.929Z,96886.78
2019-05-16T01:51:03.526Z,96889.23
2019-05-16T01:53:34.849Z,96890.16
2019-05-16T01:56:05.766Z,96888.88
2019-05-16T01:58:38.224Z,96890.91
2019-05-16T02:01:13.157Z,96885.28
2019-05-16T02:03:42.086Z,96882.06
2019-05-16T02:06:13.456Z,96878.55
2019-05-16T02:08:48.884Z,96876.59
2019-05-16T02:11:20.735Z,96874.13
2019-05-16T02:13:52.292Z,96868.39
2019-05-16T02:16:23.665Z,96873.73
2019-05-16T02:18:55.273Z,96869.55
2019-05-16T02:21:28.735Z,96866.28
2019-05-16T02:24:02.052Z,96860.59
2019-05-16T02:26:34.851Z,96865.08
2019-05-16T02:29:05.424Z,96863.50
2019-05-16T02:31:36.745Z,96862.73
2019-05-16T02:34:11.522Z,96858.97
2019-05-16T02:36:41.040Z,96861.70
2019-05-16T02:39:11.767Z,96856.94
2019-05-16T02:41:46.244Z,96852.25
2019-05-16T02:44:16.472Z,96851.42
2019-05-16T02:46:50.717Z,96846.27
2019-05-16T02:49:21.653Z,96839.15
2019-05-16T02:51:53.318Z,96842.20
2019-05-16T02:54:24.590Z,96841.34
2019-05-16T02:56:55.005Z,96842.57
2019-05-16T02:59:26.965Z,96844.39
2019-05-16T03:02:00.841Z,96837.51
2019-05-16T03:04:31.666Z,96842.20
2019-05-16T03:07:03.520Z,96837.77
2019-05-16T03:09:35.217Z,96836.81
2019-05-16T03:12:06.705Z,96837.80
2019-05-16T03:14:37.366Z,96842.63
2019-05-16T03:17:11.238Z,96842.61
2019-05-16T03:19:42.185Z,96844.33
2019-05-16T03:22:21.624Z,96837.70
2019-05-16T03:24:51.780Z,96833.58
2019-05-16T03:27:23.226Z,96837.04
2019-05-16T03:29:54.814Z,96832.02
2019-05-16T03:32:26.181Z,96834.86
2019-05-16T03:34:57.264Z,96840.36
2019-05-16T03:37:30.717Z,96831.53
2019-05-16T03:40:01.411Z,96835.98
2019-05-16T03:42:41.627Z,96834.05
2019-05-16T03:45:12.188Z,96834.39
2019-05-16T03:47:43.259Z,96831.59
2019-05-16T03:50:14.478Z,96832.29
2019-05-16T03:52:50.544Z,96831.70
2019-05-16T03:55:21.430Z,96834.46
2019-05-16T03:57:52.558Z,96834.30
2019-05-16T04:00:56.092Z,96835.00
2019-05-16T04:03:29.166Z,96834.45
2019-05-16T04:06:01.448Z,96837.67
2019-05-16T04:08:32.904Z,96833.66
2019-05-16T04:11:04.162Z,96828.95
2019-05-16T04:13:35.562Z,96826.97
2019-05-16T04:16:06.783Z,96819.34
2019-05-16T04:18:41.660Z,96828.55
2019-05-16T04:21:11.970Z,96831.88
2019-05-16T04:23:51.273Z,96833.16
2019-05-16T04:26:22.687Z,96828.58
2019-05-16T04:28:54.342Z,96829.27
2019-05-16T04:31:25.932Z,96827.38
2019-05-16T04:34:00.881Z,96821.13
2019-05-16T04:36:32.962Z,96821.73
2019-05-16T04:39:05.276Z,96821.22
2019-05-16T04:41:36.316Z,96818.08
2019-05-16T04:44:11.282Z,96822.98
2019-05-16T04:46:41.271Z,96820.53
2019-05-16T04:49:12.717Z,96824.41
2019-05-16T04:51:45.289Z,96828.33
2019-05-16T04:54:21.621Z,96829.19
2019-05-16T04:56:51.805Z,96833.33
2019-05-16T04:59:27.198Z,96833.30
2019-05-16T05:02:02.164Z,96835.27
2019-05-16T05:04:31.671Z,96843.86
2019-05-16T05:07:02.904Z,96830.53
2019-05-16T05:09:35.072Z,96834.05
2019-05-16T05:12:05.793Z,96833.63
2019-05-16T05:14:37.011Z,96825.98
2019-05-16T05:17:10.460Z,96825.13
2019-05-16T05:19:41.400Z,96814.84
2019-05-16T05:22:13.144Z,96809.22
2019-05-16T05:24:44.848Z,96814.61
2019-05-16T05:27:15.857Z,96809.59
2019-05-16T05:29:47.512Z,96815.23
2019-05-16T05:32:20.002Z,96806.50
2019-05-16T05:34:52.033Z,96813.23
2019-05-16T05:37:23.273Z,96816.00
2019-05-16T05:39:54.231Z,96813.75
2019-05-16T05:42:25.598Z,96809.45
2019-05-16T05:44:56.936Z,96809.08
2019-05-16T05:47:30.509Z,96807.89
2019-05-16T05:50:11.141Z,96803.81
2019-05-16T05:52:42.345Z,96798.25
2019-05-16T05:55:13.776Z,96801.85
2019-05-16T05:57:45.547Z,96815.88
2019-05-16T06:00:16.808Z,96820.27
2019-05-16T06:02:50.688Z,96824.03
2019-05-16T06:05:21.051Z,96809.01
2019-05-16T06:07:52.323Z,96811.95
2019-05-16T06:10:23.605Z,96813.14
2019-05-16T06:12:54.592Z,96817.79
2019-05-16T06:15:26.483Z,96815.33
2019-05-16T06:18:00.054Z,96819.82
2019-05-16T06:20:30.881Z,96816.08
2019-05-16T06:23:02.096Z,96814.05
2019-05-16T06:25:33.550Z,96816.09
2019-05-16T06:28:04.241Z,96819.23
2019-05-16T06:30:35.836Z,96816.73
2019-05-16T06:33:06.701Z,96819.28
2019-05-16T06:35:40.218Z,96819.39
2019-05-16T06:38:11.626Z,96813.25
2019-05-16T06:40:42.555Z,96816.53
2019-05-16T06:43:14.546Z,96810.14
2019-05-16T06:45:45.933Z,96805.11
2019-05-16T06:48:17.487Z,96807.93
2019-05-16T06:50:51.532Z,96816.44
2019-05-16T06:53:22.194Z,96806.83
2019-05-16T06:55:53.477Z,96802.72
2019-05-16T06:58:25.049Z,96805.91
2019-05-16T07:00:59.274Z,96795.77
2019-05-16T07:03:30.919Z,96795.30
2019-05-16T07:06:02.673Z,96791.53
2019-05-16T07:08:34.024Z,96793.56
2019-05-16T07:11:05.269Z,96795.05
2019-05-16T07:13:36.918Z,96792.19
2019-05-16T07:16:09.739Z,96792.05
2019-05-16T07:18:40.782Z,96790.13
2019-05-16T07:21:12.330Z,96788.64
2019-05-16T07:23:55.128Z,96793.92
2019-05-16T07:26:26.896Z,96790.80
2019-05-16T07:29:00.352Z,96781.94
2019-05-16T07:31:31.748Z,96781.58
2019-05-16T07:34:02.655Z,96778.58
2019-05-16T07:36:34.172Z,96776.05
2019-05-16T07:39:06.439Z,96770.14
2019-05-16T07:41:39.998Z,96766.77
2019-05-16T07:44:11.010Z,96772.78
2019-05-16T07:46:44.745Z,96767.53
2019-05-16T07:49:14.682Z,96770.59
2019-05-16T07:51:46.008Z,96767.55
2019-05-16T07:54:17.242Z,96765.75
2019-05-16T07:56:57.250Z,96760.64
2019-05-16T07:59:22.085Z,96754.06
2019-05-16T08:01:54.222Z,96752.72
2019-05-16T08:04:25.317Z,96748.79
2019-05-16T08:06:56.692Z,96754.52
2019-05-16T08:09:30.598Z,96753.33
2019-05-16T08:12:03.039Z,96747.77
2019-05-16T08:14:35.257Z,96746.63
2019-05-16T08:17:06.295Z,96743.41
2019-05-16T08:19:39.953Z,96743.44
2019-05-16T08:22:11.387Z,96743.14
2019-05-16T08:24:42.612Z,96746.25
2019-05-16T08:27:13.885Z,96742.28
2019-05-16T08:29:45.361Z,96737.80
2019-05-16T08:32:24.096Z,96738.02
2019-05-16T08:34:55.425Z,96733.91
2019-05-16T08:37:37.016Z,96731.50
2019-05-16T08:40:00.341Z,96727.53
2019-05-16T08:42:32.221Z,96732.02
2019-05-16T08:45:04.291Z,96733.08
2019-05-16T08:47:36.972Z,96735.97
2019-05-16T08:50:14.234Z,96733.58
2019-05-16T08:52:43.789Z,96725.92
2019-05-16T08:55:15.314Z,96725.31
2019-05-16T08:57:46.747Z,96721.27
2019-05-16T09:00:21.767Z,96722.59
2019-05-16T09:03:01.447Z,96719.33
2019-05-16T09:05:31.618Z,96716.42
2019-05-16T09:08:02.709Z,96713.19
2019-05-16T09:13:07.301Z,96710.36
2019-05-16T09:15:42.593Z,96704.20
2019-05-16T09:18:17.538Z,96707.84
2019-05-16T09:18:38.941Z,96708.92
2019-05-16T09:20:49.943Z,96709.63
2019-05-16T09:23:20.227Z,96706.61
2019-05-16T09:25:51.560Z,96709.45
2019-05-16T09:28:22.817Z,96715.84
2019-05-16T09:31:01.434Z,96710.23
2019-05-16T09:33:32.368Z,96703.50
2019-05-16T09:36:03.389Z,96706.13
2019-05-16T09:38:38.046Z,96707.59
2019-05-16T09:41:08.339Z,96710.66
2019-05-16T09:43:49.085Z,96700.84
2019-05-16T09:46:20.465Z,96699.13
2019-05-16T09:49:10.087Z,96699.72
2019-05-16T09:51:26.905Z,96692.11
2019-05-16T09:53:58.102Z,96691.63
2019-05-16T09:56:29.328Z,96682.30
2019-05-16T09:59:00.599Z,96681.88
2019-05-16T10:01:32.060Z,96689.61
2019-05-16T10:04:03.619Z,96692.65
2019-05-16T10:06:36.930Z,96690.77
2019-05-16T10:09:08.520Z,96688.55
2019-05-16T10:11:42.115Z,96688.86
2019-05-16T10:14:12.579Z,96687.60
2019-05-16T10:16:44.523Z,96681.58
2019-05-16T10:19:16.899Z,96677.77
2019-05-16T10:21:48.355Z,96684.50
2019-05-16T10:24:19.705Z,96685.17
2019-05-16T10:26:53.990Z,96681.92
2019-05-16T10:29:27.141Z,96683.40
2019-05-16T10:31:56.965Z,96681.77
2019-05-16T10:34:28.686Z,96684.20
2019-05-16T10:36:59.925Z,96675.77
2019-05-16T10:39:31.439Z,96683.98
2019-05-16T10:42:02.727Z,96674.67
2019-05-16T10:44:38.008Z,96677.03
2019-05-16T10:47:07.810Z,96671.98
2019-05-16T10:49:41.859Z,96673.28
2019-05-16T10:52:12.694Z,96673.12
2019-05-16T10:54:55.434Z,96667.27
2019-05-16T10:57:16.536Z,96671.16
2019-05-16T11:00:05.327Z,96673.05
2019-05-16T11:02:21.533Z,96668.80
2019-05-16T11:05:00.516Z,96665.50
2019-05-16T11:07:29.446Z,96668.17
2019-05-16T11:10:03.298Z,96665.91
2019-05-16T11:12:50.727Z,96664.89
2019-05-16T11:15:17.052Z,96657.15
2019-05-16T11:17:46.915Z,96655.80
2019-05-16T11:20:20.724Z,96652.22
2019-05-16T11:22:51.737Z,96654.74
2019-05-16T11:25:31.642Z,96647.75
2019-05-16T11:27:57.809Z,96647.14
2019-05-16T11:30:28.658Z,96646.13
2019-05-16T11:33:00.318Z,96642.97
2019-05-16T11:35:31.818Z,96655.84
2019-05-16T11:38:02.507Z,96651.61
2019-05-16T11:40:33.982Z,96656.64
2019-05-16T11:43:14.688Z,96662.62
2019-05-16T11:45:39.399Z,96655.25
2019-05-16T11:48:10.647Z,96648.72
2019-05-16T11:50:41.940Z,96646.80
2019-05-16T11:53:17.211Z,96642.53
2019-05-16T11:55:54.447Z,96646.66
2019-05-16T11:58:20.443Z,96645.81
2019-05-16T12:00:51.750Z,96645.64
2019-05-16T12:03:23.328Z,96646.08
2019-05-16T12:05:57.724Z,96646.56
2019-05-16T12:08:28.288Z,96643.81
2019-05-16T12:10:59.644Z,96633.56
2019-05-16T12:13:32.936Z,96649.39
2019-05-16T12:16:03.455Z,96645.50
2019-05-16T12:18:37.240Z,96640.37
2019-05-16T12:21:07.871Z,96632.36
2019-05-16T12:23:39.323Z,96627.71
2019-05-16T12:26:10.817Z,96620.86
2019-05-16T12:28:42.605Z,96622.42
2019-05-16T12:31:13.176Z,96618.89
2019-05-16T12:33:44.217Z,96619.19
2019-05-16T12:36:17.589Z,96607.19
2019-05-16T12:38:48.659Z,96612.17
2019-05-16T12:41:20.753Z,96605.98
2019-05-16T12:43:53.599Z,96616.16
2019-05-16T12:46:27.215Z,96612.85
2019-05-16T12:48:58.564Z,96614.09
2019-05-16T12:51:29.478Z,96606.46
2019-05-16T12:54:00.862Z,96600.66
2019-05-16T12:56:31.787Z,96601.34
2019-05-16T12:59:03.224Z,96603.70
2019-05-16T13:01:37.941Z,96596.68
2019-05-16T13:04:07.171Z,96603.56
2019-05-16T13:06:38.104Z,96596.20
2019-05-16T13:09:09.651Z,96595.07
2019-05-16T13:11:40.304Z,96591.60
2019-05-16T13:14:11.645Z,96587.48
2019-05-16T13:16:43.096Z,96581.78
2019-05-16T13:19:14.429Z,96576.66
2019-05-16T13:21:46.959Z,96565.80
2019-05-16T13:24:19.099Z,96570.32
2019-05-16T13:26:50.117Z,96563.66
2019-05-16T13:29:21.780Z,96553.44
2019-05-16T13:31:52.804Z,96548.84
2019-05-16T13:34:27.880Z,96544.70
2019-05-16T13:36:58.045Z,96545.13
2019-05-16T13:39:29.417Z,96535.18
2019-05-16T13:42:01.174Z,96540.05
2019-05-16T13:44:33.468Z,96539.44
2019-05-16T13:47:04.818Z,96537.80
2019-05-16T13:49:38.605Z,96530.30
2019-05-16T13:52:08.921Z,96526.88
2019-05-16T13:54:40.171Z,96528.20
2019-05-16T13:57:11.928Z,96511.98
2019-05-16T13:59:43.788Z,96510.93
2019-05-16T14:02:20.990Z,96510.71
2019-05-16T14:04:52.329Z,96512.25
2019-05-16T14:07:23.679Z,96510.98
2019-05-16T14:09:57.873Z,96497.40
2019-05-16T14:12:36.971Z,96500.41
2019-05-16T14:15:08.469Z,96500.45
2019-05-16T14:17:40.031Z,96496.69
2019-05-16T14:20:17.642Z,96494.69
2019-05-16T14:22:44.949Z,96487.48
2019-05-16T14:25:16.079Z,96483.75
2019-05-16T14:27:47.696Z,96478.88
2019-05-16T14:30:20.640Z,96481.61
2019-05-16T14:33:00.331Z,96481.83
2019-05-16T14:35:28.922Z,96471.42
2019-05-16T14:38:01.047Z,96472.80
2019-05-16T14:40:32.856Z,96470.31
2019-05-16T14:43:07.843Z,96468.39
2019-05-16T14:45:37.630Z,96465.77
2019-05-16T14:48:08.678Z,96460.59
2019-05-16T14:50:39.952Z,96459.07
2019-05-16T14:53:11.121Z,96465.73
2019-05-16T14:55:47.665Z,96460.82
2019-05-16T14:58:19.116Z,96457.53
2019-05-16T15:00:51.374Z,96464.33
2019-05-16T15:03:22.856Z,96467.09
2019-05-16T15:05:58.157Z,96464.51
2019-05-16T15:08:27.382Z,96464.27
2019-05-16T15:10:58.597Z,96458.05
2019-05-16T15:13:30.087Z,96453.24
2019-05-16T15:16:02.845Z,96449.15
2019-05-16T15:18:34.105Z,96445.47
2019-05-16T15:21:09.102Z,96450.32
2019-05-16T15:23:40.330Z,96450.55
2019-05-16T15:26:11.255Z,96445.29
2019-05-16T15:28:51.156Z,96445.41
2019-05-16T15:31:21.983Z,96450.02
2019-05-16T15:33:53.158Z,96453.91
2019-05-16T15:36:23.763Z,96450.34
2019-05-16T15:38:59.222Z,96450.63
2019-05-16T15:41:27.746Z,96443.20
2019-05-16T15:43:59.377Z,96438.14
2019-05-16T15:46:30.865Z,96431.03
2019-05-16T15:49:02.450Z,96425.13
2019-05-16T15:51:50.773Z,96425.86
2019-05-16T15:54:28.324Z,96419.91
2019-05-16T15:56:58.112Z,96422.19
2019-05-16T15:59:29.769Z,96420.04
2019-05-16T16:02:01.000Z,96420.21
2019-05-16T16:04:32.340Z,96412.63
2019-05-16T16:07:03.702Z,96403.66
2019-05-16T16:09:39.862Z,96400.41
2019-05-16T16:12:11.615Z,96398.57
2019-05-16T16:14:42.943Z,96392.00
2019-05-16T16:17:17.462Z,96389.56
2019-05-16T16:19:48.491Z,96386.50
2019-05-16T16:22:19.801Z,96397.00
2019-05-16T16:24:50.792Z,96387.23
2019-05-16T16:27:22.478Z,96383.84
2019-05-16T16:29:54.110Z,96384.76
2019-05-16T16:32:26.888Z,96383.42
2019-05-16T16:34:58.310Z,96382.81
2019-05-16T16:37:28.983Z,96380.62
2019-05-16T16:40:00.809Z,96378.99
2019-05-16T16:42:32.399Z,96368.92
2019-05-16T16:45:03.756Z,96377.62
2019-05-16T16:47:37.434Z,96378.44
2019-05-16T16:50:08.445Z,96378.31
2019-05-16T16:52:39.834Z,96380.13
2019-05-16T16:55:10.730Z,96377.56
2019-05-16T16:57:41.706Z,96376.73
2019-05-16T17:00:13.635Z,96384.48
2019-05-16T17:03:01.369Z,96381.88
2019-05-16T17:05:17.683Z,96381.27
2019-05-16T17:07:49.292Z,96376.62
2019-05-16T17:10:20.394Z,96381.80
2019-05-16T17:12:52.098Z,96385.36
2019-05-16T17:15:23.776Z,96385.16
2019-05-16T17:17:57.383Z,96382.07
2019-05-16T17:20:28.146Z,96379.47
2019-05-16T17:22:59.595Z,96378.03
2019-05-16T17:25:30.577Z,96381.41
2019-05-16T17:28:01.262Z,96386.75
2019-05-16T17:30:31.837Z,96382.19
2019-05-16T17:33:03.536Z,96386.95
2019-05-16T17:35:34.438Z,96389.44
2019-05-16T17:38:06.673Z,96390.13
2019-05-16T17:40:38.515Z,96394.13
2019-05-16T17:43:09.978Z,96390.09
2019-05-16T17:45:41.565Z,96389.84
2019-05-16T17:48:12.572Z,96392.62
2019-05-16T17:50:46.513Z,96387.03
2019-05-16T17:53:17.851Z,96386.20
2019-05-16T17:55:49.073Z,96382.27
2019-05-16T17:58:20.061Z,96377.19
2019-05-16T18:00:51.681Z,96374.99
2019-05-16T18:03:22.986Z,96381.63
2019-05-16T18:05:56.615Z,96378.12
2019-05-16T18:08:27.921Z,96382.98
2019-05-16T18:10:59.423Z,96385.94
2019-05-16T18:13:36.904Z,96384.20
2019-05-16T18:16:07.925Z,96389.19
2019-05-16T18:18:39.026Z,96391.38
2019-05-16T18:21:12.400Z,96395.05
2019-05-16T18:23:44.524Z,96391.35
2019-05-16T18:26:17.487Z,96393.29
2019-05-16T18:28:49.684Z,96396.41
2019-05-16T18:31:21.101Z,96387.42
2019-05-16T18:33:53.610Z,96391.80
2019-05-16T18:36:29.733Z,96390.79
2019-05-16T18:39:01.915Z,96384.63
2019-05-16T18:41:39.188Z,96380.87
2019-05-16T18:44:12.025Z,96383.77
2019-05-16T18:46:43.998Z,96384.17
2019-05-16T18:49:15.068Z,96380.48
2019-05-16T18:51:48.507Z,96377.90
2019-05-16T18:54:21.097Z,96375.30
2019-05-16T18:56:53.357Z,96381.61
2019-05-16T18:59:27.269Z,96375.56
2019-05-16T19:01:58.635Z,96372.08
2019-05-16T19:04:31.010Z,96371.60
2019-05-16T19:07:13.689Z,96376.67
2019-05-16T19:09:44.914Z,96377.41
2019-05-16T19:12:17.410Z,96377.63
2019-05-16T19:14:48.544Z,96380.16
2019-05-16T19:17:24.862Z,96381.00
2019-05-16T19:20:02.542Z,96378.13
2019-05-16T19:22:38.964Z,96375.91
2019-05-16T19:25:18.501Z,96373.61
2019-05-16T19:27:53.260Z,96381.92
2019-05-16T19:30:27.577Z,96390.93
2019-05-16T19:33:02.961Z,96384.21
2019-05-16T19:35:46.862Z,96381.52
2019-05-16T19:38:21.177Z,96385.70
2019-05-16T19:40:57.442Z,96381.63
2019-05-16T19:43:37.027Z,96384.64
2019-05-16T19:46:13.670Z,96381.23
2019-05-16T19:48:50.362Z,96385.00
2019-05-16T19:51:31.486Z,96378.95
2019-05-16T19:54:02.972Z,96382.07
2019-05-16T19:56:40.130Z,96383.71
2019-05-16T19:59:13.575Z,96400.55
2019-05-16T20:01:46.573Z,96395.43
2019-05-16T20:04:22.265Z,96394.05
2019-05-16T20:06:56.836Z,96396.36
2019-05-16T20:09:30.321Z,96391.70
2019-05-16T20:12:04.690Z,96391.92
2019-05-16T20:14:42.587Z,96391.51
2019-05-16T20:17:26.960Z,96391.08
2019-05-16T20:20:02.530Z,96392.95
2019-05-16T20:22:37.688Z,96394.55
2019-05-16T20:25:13.090Z,96387.45
2019-05-16T20:27:46.997Z,96391.50
2019-05-16T20:30:23.179Z,96390.23
2019-05-16T20:33:00.250Z,96389.51
2019-05-16T20:35:32.181Z,96391.34
2019-05-16T20:38:07.104Z,96393.11
2019-05-16T20:40:46.461Z,96393.20
2019-05-16T20:43:26.333Z,96387.43
2019-05-16T20:46:00.626Z,96392.61
2019-05-16T20:48:42.945Z,96389.27
2019-05-16T20:51:20.279Z,96383.75
2019-05-16T20:54:00.698Z,96390.80
2019-05-16T20:56:40.633Z,96392.48
2019-05-16T20:59:17.095Z,96393.55
2019-05-16T21:01:57.466Z,96389.92
2019-05-16T21:04:37.825Z,96386.33
2019-05-16T21:07:13.199Z,96387.06
2019-05-16T21:09:50.517Z,96385.06
2019-05-16T21:12:26.780Z,96384.16
2019-05-16T21:15:07.767Z,96379.21
2019-05-16T21:17:42.850Z,96388.06
2019-05-16T21:20:29.550Z,96385.69
2019-05-16T21:23:01.301Z,96380.97
2019-05-16T21:25:33.585Z,96381.36
2019-05-16T21:28:07.939Z,96379.02
2019-05-16T21:30:42.596Z,96377.42
2019-05-16T21:33:18.688Z,96371.18
2019-05-16T21:35:59.949Z,96370.78
2019-05-16T21:38:37.724Z,96367.30
2019-05-16T21:41:16.677Z,96360.09
2019-05-16T21:43:56.136Z,96352.26
2019-05-16T21:46:36.519Z,96356.02
2019-05-16T21:49:20.657Z,96349.64
2019-05-16T21:51:57.074Z,96354.30
2019-05-16T21:54:31.432Z,96348.09
2019-05-16T21:57:06.055Z,96345.39
2019-05-16T21:59:37.681Z,96347.50
2019-05-16T22:02:09.943Z,96344.16
2019-05-16T22:04:41.569Z,96344.20
2019-05-16T22:07:13.273Z,96340.72
2019-05-16T22:09:46.563Z,96339.58
2019-05-16T22:12:18.450Z,96331.03
2019-05-16T22:14:57.238Z,96330.68
2019-05-16T22:17:36.660Z,96330.00
2019-05-16T22:20:16.556Z,96326.20
2019-05-16T22:22:49.829Z,96325.56
2019-05-16T22:25:22.276Z,96330.95
2019-05-16T22:27:54.303Z,96324.95
2019-05-16T22:30:38.017Z,96324.05
2019-05-16T22:33:09.590Z,96315.43
2019-05-16T22:35:46.425Z,96318.33
2019-05-16T22:38:30.926Z,96317.45
2019-05-16T22:41:03.271Z,96317.56
2019-05-16T22:43:37.187Z,96314.57
2019-05-16T22:46:09.949Z,96306.91
2019-05-16T22:48:46.809Z,96302.69
2019-05-16T22:51:23.528Z,96297.36
2019-05-16T22:53:58.486Z,96297.20
2019-05-16T22:56:28.975Z,96291.21
2019-05-16T22:59:02.063Z,96289.87
2019-05-16T23:01:39.529Z,96288.10
2019-05-16T23:04:20.156Z,96282.48
2019-05-16T23:06:56.513Z,96279.19
2019-05-16T23:09:44.586Z,96276.27
2019-05-16T23:12:17.533Z,96272.39
2019-05-16T23:14:52.700Z,96274.12
2019-05-16T23:17:26.786Z,96266.72
2019-05-16T23:19:58.489Z,96263.25
2019-05-16T23:22:36.495Z,96260.22
2019-05-16T23:25:07.504Z,96258.39
2019-05-16T23:27:44.625Z,96262.95
2019-05-16T23:30:19.926Z,96258.02
2019-05-16T23:32:56.298Z,96258.30
2019-05-16T23:35:37.302Z,96256.41
2019-05-16T23:38:19.930Z,96251.22
2019-05-16T23:40:57.172Z,96251.38
2019-05-16T23:43:30.612Z,96243.01
2019-05-16T23:46:13.493Z,96242.87
2019-05-16T23:48:48.240Z,96236.28
2019-05-16T23:51:19.783Z,96235.91
2019-05-16T23:53:56.933Z,96229.92
2019-05-16T23:56:31.859Z,96224.38
2019-05-16T23:59:06.688Z,96228.09
